sensor_id;sensor_type;location;lat;lon;timestamp;temperature;humidity
12849;DHT22;6493;50.928;7.172;2023-02-05T00:04:21;3.60;65.30
12849;DHT22;6493;50.928;7.172;2023-02-05T00:09:25;3.60;65.30
12849;DHT22;6493;50.928;7.172;2023-02-05T00:14:29;3.50;65.80
12849;DHT22;6493;50.928;7.172;2023-02-05T00:19:34;3.50;65.10
12849;DHT22;6493;50.928;7.172;2023-02-05T00:24:38;3.50;65.20
12849;DHT22;6493;50.928;7.172;2023-02-05T00:29:41;3.40;65.10
12849;DHT22;6493;50.928;7.172;2023-02-05T00:34:47;3.40;65.30
12849;DHT22;6493;50.928;7.172;2023-02-05T00:39:50;3.40;65.40
12849;DHT22;6493;50.928;7.172;2023-02-05T00:44:54;3.30;65.40
12849;DHT22;6493;50.928;7.172;2023-02-05T00:50:01;3.30;65.40
12849;DHT22;6493;50.928;7.172;2023-02-05T00:55:05;3.30;65.50
12849;DHT22;6493;50.928;7.172;2023-02-05T01:00:10;3.30;65.60
12849;DHT22;6493;50.928;7.172;2023-02-05T01:05:15;3.30;65.70
12849;DHT22;6493;50.928;7.172;2023-02-05T01:10:20;3.40;65.80
12849;DHT22;6493;50.928;7.172;2023-02-05T01:15:23;3.40;65.70
12849;DHT22;6493;50.928;7.172;2023-02-05T01:20:29;3.40;65.70
12849;DHT22;6493;50.928;7.172;2023-02-05T01:25:32;3.30;65.70
12849;DHT22;6493;50.928;7.172;2023-02-05T01:30:37;3.30;65.70
12849;DHT22;6493;50.928;7.172;2023-02-05T01:35:42;3.30;65.70
12849;DHT22;6493;50.928;7.172;2023-02-05T01:40:46;3.30;65.80
12849;DHT22;6493;50.928;7.172;2023-02-05T01:51:32;3.30;66.10
12849;DHT22;6493;50.928;7.172;2023-02-05T01:56:41;3.30;66.00
12849;DHT22;6493;50.928;7.172;2023-02-05T02:01:47;3.20;66.00
12849;DHT22;6493;50.928;7.172;2023-02-05T02:06:53;3.20;66.00
12849;DHT22;6493;50.928;7.172;2023-02-05T02:11:57;3.20;66.10
12849;DHT22;6493;50.928;7.172;2023-02-05T02:17:01;3.20;66.20
12849;DHT22;6493;50.928;7.172;2023-02-05T02:27:47;3.20;66.30
12849;DHT22;6493;50.928;7.172;2023-02-05T02:33:01;3.20;66.30
12849;DHT22;6493;50.928;7.172;2023-02-05T02:38:10;3.20;66.30
12849;DHT22;6493;50.928;7.172;2023-02-05T02:43:18;3.20;66.50
12849;DHT22;6493;50.928;7.172;2023-02-05T02:48:27;3.20;66.40
12849;DHT22;6493;50.928;7.172;2023-02-05T02:53:34;3.20;66.60
12849;DHT22;6493;50.928;7.172;2023-02-05T02:58:43;3.10;66.50
12849;DHT22;6493;50.928;7.172;2023-02-05T03:03:52;3.10;66.60
12849;DHT22;6493;50.928;7.172;2023-02-05T03:08:59;3.10;66.60
12849;DHT22;6493;50.928;7.172;2023-02-05T03:14:05;3.00;66.70
12849;DHT22;6493;50.928;7.172;2023-02-05T03:19:12;3.00;66.70
12849;DHT22;6493;50.928;7.172;2023-02-05T03:24:16;3.10;66.90
12849;DHT22;6493;50.928;7.172;2023-02-05T03:29:25;3.10;67.00
12849;DHT22;6493;50.928;7.172;2023-02-05T03:34:40;3.10;67.10
12849;DHT22;6493;50.928;7.172;2023-02-05T03:39:56;3.10;67.20
12849;DHT22;6493;50.928;7.172;2023-02-05T03:45:18;3.10;67.20
12849;DHT22;6493;50.928;7.172;2023-02-05T03:50:30;3.20;67.20
12849;DHT22;6493;50.928;7.172;2023-02-05T03:55:39;3.20;67.10
12849;DHT22;6493;50.928;7.172;2023-02-05T04:00:45;3.20;67.20
12849;DHT22;6493;50.928;7.172;2023-02-05T04:05:50;3.20;67.10
12849;DHT22;6493;50.928;7.172;2023-02-05T04:10:54;3.20;67.10
12849;DHT22;6493;50.928;7.172;2023-02-05T04:16:00;3.30;67.20
12849;DHT22;6493;50.928;7.172;2023-02-05T04:21:04;3.20;67.80
12849;DHT22;6493;50.928;7.172;2023-02-05T04:26:11;3.30;67.20
12849;DHT22;6493;50.928;7.172;2023-02-05T04:31:28;3.30;67.20
12849;DHT22;6493;50.928;7.172;2023-02-05T04:36:32;3.20;67.10
12849;DHT22;6493;50.928;7.172;2023-02-05T04:41:37;3.20;67.10
12849;DHT22;6493;50.928;7.172;2023-02-05T04:46:42;3.20;67.90
12849;DHT22;6493;50.928;7.172;2023-02-05T04:51:46;3.20;67.30
12849;DHT22;6493;50.928;7.172;2023-02-05T04:56:49;3.20;67.40
12849;DHT22;6493;50.928;7.172;2023-02-05T05:01:54;3.10;68.00
12849;DHT22;6493;50.928;7.172;2023-02-05T05:06:58;3.10;67.30
12849;DHT22;6493;50.928;7.172;2023-02-05T05:12:02;3.10;67.40
12849;DHT22;6493;50.928;7.172;2023-02-05T05:17:07;3.10;67.50
12849;DHT22;6493;50.928;7.172;2023-02-05T05:22:10;3.10;67.50
12849;DHT22;6493;50.928;7.172;2023-02-05T05:27:14;3.00;67.50
12849;DHT22;6493;50.928;7.172;2023-02-05T05:32:21;3.00;67.50
12849;DHT22;6493;50.928;7.172;2023-02-05T05:37:25;3.00;67.80
12849;DHT22;6493;50.928;7.172;2023-02-05T05:42:28;3.00;67.70
12849;DHT22;6493;50.928;7.172;2023-02-05T05:47:50;3.00;67.70
12849;DHT22;6493;50.928;7.172;2023-02-05T05:52:54;3.00;67.90
12849;DHT22;6493;50.928;7.172;2023-02-05T05:57:58;3.10;68.00
12849;DHT22;6493;50.928;7.172;2023-02-05T06:03:03;3.10;68.10
12849;DHT22;6493;50.928;7.172;2023-02-05T06:08:06;3.10;68.10
12849;DHT22;6493;50.928;7.172;2023-02-05T06:13:10;3.20;68.10
12849;DHT22;6493;50.928;7.172;2023-02-05T06:18:15;3.20;68.10
12849;DHT22;6493;50.928;7.172;2023-02-05T06:23:19;3.20;68.10
12849;DHT22;6493;50.928;7.172;2023-02-05T06:28:23;3.20;68.00
12849;DHT22;6493;50.928;7.172;2023-02-05T06:33:29;3.20;68.10
12849;DHT22;6493;50.928;7.172;2023-02-05T06:38:32;3.30;68.20
12849;DHT22;6493;50.928;7.172;2023-02-05T06:43:36;3.20;68.00
12849;DHT22;6493;50.928;7.172;2023-02-05T06:48:41;3.30;68.10
12849;DHT22;6493;50.928;7.172;2023-02-05T06:53:45;3.30;68.20
12849;DHT22;6493;50.928;7.172;2023-02-05T06:58:49;3.30;68.20
12849;DHT22;6493;50.928;7.172;2023-02-05T07:03:54;3.30;68.20
12849;DHT22;6493;50.928;7.172;2023-02-05T07:08:58;3.30;68.30
12849;DHT22;6493;50.928;7.172;2023-02-05T07:14:02;3.30;68.30
12849;DHT22;6493;50.928;7.172;2023-02-05T07:19:07;3.30;68.30
12849;DHT22;6493;50.928;7.172;2023-02-05T07:24:11;3.30;68.20
12849;DHT22;6493;50.928;7.172;2023-02-05T07:29:14;3.30;68.30
12849;DHT22;6493;50.928;7.172;2023-02-05T07:34:19;3.30;68.20
12849;DHT22;6493;50.928;7.172;2023-02-05T07:39:23;3.30;68.40
12849;DHT22;6493;50.928;7.172;2023-02-05T07:44:29;3.40;68.60
12849;DHT22;6493;50.928;7.172;2023-02-05T07:49:34;3.40;68.60
12849;DHT22;6493;50.928;7.172;2023-02-05T07:54:38;3.40;68.80
12849;DHT22;6493;50.928;7.172;2023-02-05T07:59:42;3.40;68.90
12849;DHT22;6493;50.928;7.172;2023-02-05T08:04:47;3.50;68.90
12849;DHT22;6493;50.928;7.172;2023-02-05T08:09:50;3.50;69.00
12849;DHT22;6493;50.928;7.172;2023-02-05T08:14:54;3.50;69.00
12849;DHT22;6493;50.928;7.172;2023-02-05T08:19:59;3.50;69.10
12849;DHT22;6493;50.928;7.172;2023-02-05T08:25:10;3.50;69.30
12849;DHT22;6493;50.928;7.172;2023-02-05T08:30:16;3.50;69.20
12849;DHT22;6493;50.928;7.172;2023-02-05T08:35:24;3.50;69.00
12849;DHT22;6493;50.928;7.172;2023-02-05T08:40:27;3.50;69.10
12849;DHT22;6493;50.928;7.172;2023-02-05T08:45:31;3.50;69.60
12849;DHT22;6493;50.928;7.172;2023-02-05T08:50:37;3.50;69.30
12849;DHT22;6493;50.928;7.172;2023-02-05T08:55:40;3.50;69.40
12849;DHT22;6493;50.928;7.172;2023-02-05T09:00:44;3.50;69.30
12849;DHT22;6493;50.928;7.172;2023-02-05T09:05:49;3.50;69.40
12849;DHT22;6493;50.928;7.172;2023-02-05T09:10:53;3.50;69.40
12849;DHT22;6493;50.928;7.172;2023-02-05T09:15:56;3.50;69.40
12849;DHT22;6493;50.928;7.172;2023-02-05T09:21:05;3.50;69.30
12849;DHT22;6493;50.928;7.172;2023-02-05T09:26:09;3.50;69.40
12849;DHT22;6493;50.928;7.172;2023-02-05T09:31:15;3.50;69.40
12849;DHT22;6493;50.928;7.172;2023-02-05T09:36:21;3.50;69.40
12849;DHT22;6493;50.928;7.172;2023-02-05T09:41:29;3.50;69.50
12849;DHT22;6493;50.928;7.172;2023-02-05T09:46:40;3.50;69.50
12849;DHT22;6493;50.928;7.172;2023-02-05T09:51:50;3.40;69.60
12849;DHT22;6493;50.928;7.172;2023-02-05T09:56:58;3.40;69.50
12849;DHT22;6493;50.928;7.172;2023-02-05T10:02:19;3.40;69.70
12849;DHT22;6493;50.928;7.172;2023-02-05T10:07:35;3.40;69.70
12849;DHT22;6493;50.928;7.172;2023-02-05T10:12:50;3.40;69.50
12849;DHT22;6493;50.928;7.172;2023-02-05T10:18:03;3.30;69.40
12849;DHT22;6493;50.928;7.172;2023-02-05T10:23:14;3.30;70.10
12849;DHT22;6493;50.928;7.172;2023-02-05T10:28:28;3.40;69.50
12849;DHT22;6493;50.928;7.172;2023-02-05T10:34:56;3.40;69.60
12849;DHT22;6493;50.928;7.172;2023-02-05T10:40:10;3.40;69.40
12849;DHT22;6493;50.928;7.172;2023-02-05T10:45:18;3.30;69.50
12849;DHT22;6493;50.928;7.172;2023-02-05T10:50:26;3.30;69.40
12849;DHT22;6493;50.928;7.172;2023-02-05T10:55:32;3.40;69.70
12849;DHT22;6493;50.928;7.172;2023-02-05T11:00:38;3.40;69.70
12849;DHT22;6493;50.928;7.172;2023-02-05T11:05:42;3.40;69.70
12849;DHT22;6493;50.928;7.172;2023-02-05T11:10:52;3.40;69.70
12849;DHT22;6493;50.928;7.172;2023-02-05T11:15:57;3.50;69.70
12849;DHT22;6493;50.928;7.172;2023-02-05T11:21:04;3.50;69.50
12849;DHT22;6493;50.928;7.172;2023-02-05T11:26:16;3.50;69.70
12849;DHT22;6493;50.928;7.172;2023-02-05T11:31:24;3.50;69.70
12849;DHT22;6493;50.928;7.172;2023-02-05T11:36:28;3.50;69.70
12849;DHT22;6493;50.928;7.172;2023-02-05T11:41:35;3.50;69.60
12849;DHT22;6493;50.928;7.172;2023-02-05T11:46:50;3.50;69.70
12849;DHT22;6493;50.928;7.172;2023-02-05T11:51:58;3.50;69.70
12849;DHT22;6493;50.928;7.172;2023-02-05T11:57:21;3.50;69.70
12849;DHT22;6493;50.928;7.172;2023-02-05T12:02:30;3.50;69.70
12849;DHT22;6493;50.928;7.172;2023-02-05T12:07:38;3.60;69.90
12849;DHT22;6493;50.928;7.172;2023-02-05T12:12:51;3.60;69.80
12849;DHT22;6493;50.928;7.172;2023-02-05T12:18:08;3.60;69.80
12849;DHT22;6493;50.928;7.172;2023-02-05T12:23:36;3.60;69.70
12849;DHT22;6493;50.928;7.172;2023-02-05T12:28:56;3.60;69.70
12849;DHT22;6493;50.928;7.172;2023-02-05T12:34:21;3.60;69.60
12849;DHT22;6493;50.928;7.172;2023-02-05T12:39:36;3.50;69.70
12849;DHT22;6493;50.928;7.172;2023-02-05T12:44:55;3.50;69.60
12849;DHT22;6493;50.928;7.172;2023-02-05T12:50:13;3.50;69.80
12849;DHT22;6493;50.928;7.172;2023-02-05T12:55:31;3.50;69.80
12849;DHT22;6493;50.928;7.172;2023-02-05T13:00:43;3.50;69.70
12849;DHT22;6493;50.928;7.172;2023-02-05T13:05:53;3.40;69.70
12849;DHT22;6493;50.928;7.172;2023-02-05T13:11:02;3.40;69.80
12849;DHT22;6493;50.928;7.172;2023-02-05T13:16:12;3.40;69.70
12849;DHT22;6493;50.928;7.172;2023-02-05T13:21:18;3.40;69.80
12849;DHT22;6493;50.928;7.172;2023-02-05T13:26:43;3.40;69.80
12849;DHT22;6493;50.928;7.172;2023-02-05T13:32:09;3.40;69.90
12849;DHT22;6493;50.928;7.172;2023-02-05T13:48:36;3.40;70.00
12849;DHT22;6493;50.928;7.172;2023-02-05T13:54:00;3.40;70.00
12849;DHT22;6493;50.928;7.172;2023-02-05T13:59:15;3.40;70.10
12849;DHT22;6493;50.928;7.172;2023-02-05T14:04:25;3.40;70.00
12849;DHT22;6493;50.928;7.172;2023-02-05T14:09:36;3.40;70.00
12849;DHT22;6493;50.928;7.172;2023-02-05T14:15:24;3.40;70.10
12849;DHT22;6493;50.928;7.172;2023-02-05T14:20:40;3.40;70.20
12849;DHT22;6493;50.928;7.172;2023-02-05T14:26:04;3.40;70.10
12849;DHT22;6493;50.928;7.172;2023-02-05T14:31:08;3.40;70.20
12849;DHT22;6493;50.928;7.172;2023-02-05T14:36:38;3.40;70.00
12849;DHT22;6493;50.928;7.172;2023-02-05T14:41:50;3.40;70.00
12849;DHT22;6493;50.928;7.172;2023-02-05T14:46:57;3.40;69.90
12849;DHT22;6493;50.928;7.172;2023-02-05T14:52:05;3.30;69.80
12849;DHT22;6493;50.928;7.172;2023-02-05T14:57:17;3.30;70.00
12849;DHT22;6493;50.928;7.172;2023-02-05T15:02:58;3.30;69.80
12849;DHT22;6493;50.928;7.172;2023-02-05T15:08:12;3.20;69.80
12849;DHT22;6493;50.928;7.172;2023-02-05T15:13:19;3.10;69.60
12849;DHT22;6493;50.928;7.172;2023-02-05T15:18:25;3.10;69.70
12849;DHT22;6493;50.928;7.172;2023-02-05T15:23:33;3.00;69.70
12849;DHT22;6493;50.928;7.172;2023-02-05T15:28:41;3.10;69.90
12849;DHT22;6493;50.928;7.172;2023-02-05T15:33:56;3.00;69.70
12849;DHT22;6493;50.928;7.172;2023-02-05T15:39:13;3.00;69.70
12849;DHT22;6493;50.928;7.172;2023-02-05T15:44:27;3.00;69.80
12849;DHT22;6493;50.928;7.172;2023-02-05T15:49:35;3.00;69.70
12849;DHT22;6493;50.928;7.172;2023-02-05T15:54:40;3.00;69.70
12849;DHT22;6493;50.928;7.172;2023-02-05T15:59:44;3.00;69.70
12849;DHT22;6493;50.928;7.172;2023-02-05T16:04:53;3.00;69.60
12849;DHT22;6493;50.928;7.172;2023-02-05T16:10:00;2.90;69.50
12849;DHT22;6493;50.928;7.172;2023-02-05T16:15:12;2.90;69.40
12849;DHT22;6493;50.928;7.172;2023-02-05T16:20:21;2.90;69.50
12849;DHT22;6493;50.928;7.172;2023-02-05T16:25:33;2.90;69.40
12849;DHT22;6493;50.928;7.172;2023-02-05T16:30:40;2.90;69.50
12849;DHT22;6493;50.928;7.172;2023-02-05T16:35:46;2.90;69.40
12849;DHT22;6493;50.928;7.172;2023-02-05T16:40:54;2.90;69.40
12849;DHT22;6493;50.928;7.172;2023-02-05T16:46:20;2.90;69.50
12849;DHT22;6493;50.928;7.172;2023-02-05T16:51:36;2.90;69.50
12849;DHT22;6493;50.928;7.172;2023-02-05T16:56:48;2.90;69.40
12849;DHT22;6493;50.928;7.172;2023-02-05T17:01:53;2.90;69.50
12849;DHT22;6493;50.928;7.172;2023-02-05T17:06:59;2.90;69.40
12849;DHT22;6493;50.928;7.172;2023-02-05T17:12:24;2.90;69.40
12849;DHT22;6493;50.928;7.172;2023-02-05T17:17:30;2.90;69.40
12849;DHT22;6493;50.928;7.172;2023-02-05T17:22:34;2.90;69.30
12849;DHT22;6493;50.928;7.172;2023-02-05T17:27:39;2.80;69.10
12849;DHT22;6493;50.928;7.172;2023-02-05T17:32:43;2.80;69.10
12849;DHT22;6493;50.928;7.172;2023-02-05T17:37:48;2.80;69.20
12849;DHT22;6493;50.928;7.172;2023-02-05T17:42:53;2.80;69.20
12849;DHT22;6493;50.928;7.172;2023-02-05T17:47:57;2.80;69.90
12849;DHT22;6493;50.928;7.172;2023-02-05T17:53:00;2.80;69.30
12849;DHT22;6493;50.928;7.172;2023-02-05T17:58:06;2.80;69.30
12849;DHT22;6493;50.928;7.172;2023-02-05T18:03:09;2.80;69.30
12849;DHT22;6493;50.928;7.172;2023-02-05T18:08:13;2.80;69.40
12849;DHT22;6493;50.928;7.172;2023-02-05T18:13:18;2.80;69.40
12849;DHT22;6493;50.928;7.172;2023-02-05T18:18:23;2.80;69.30
12849;DHT22;6493;50.928;7.172;2023-02-05T18:23:26;2.80;69.30
12849;DHT22;6493;50.928;7.172;2023-02-05T18:28:33;2.80;69.40
12849;DHT22;6493;50.928;7.172;2023-02-05T18:33:36;2.80;69.30
12849;DHT22;6493;50.928;7.172;2023-02-05T18:38:41;2.80;69.30
12849;DHT22;6493;50.928;7.172;2023-02-05T18:43:46;2.80;69.30
12849;DHT22;6493;50.928;7.172;2023-02-05T18:48:50;2.80;69.10
12849;DHT22;6493;50.928;7.172;2023-02-05T18:53:55;2.80;69.10
12849;DHT22;6493;50.928;7.172;2023-02-05T18:59:03;2.80;69.20
12849;DHT22;6493;50.928;7.172;2023-02-05T19:04:09;2.80;69.20
12849;DHT22;6493;50.928;7.172;2023-02-05T19:09:14;2.80;69.20
12849;DHT22;6493;50.928;7.172;2023-02-05T19:14:21;2.70;69.20
12849;DHT22;6493;50.928;7.172;2023-02-05T19:19:25;2.70;69.30
12849;DHT22;6493;50.928;7.172;2023-02-05T19:24:29;2.70;69.20
12849;DHT22;6493;50.928;7.172;2023-02-05T19:29:34;2.70;69.10
12849;DHT22;6493;50.928;7.172;2023-02-05T19:34:41;2.70;69.20
12849;DHT22;6493;50.928;7.172;2023-02-05T19:39:46;2.70;69.20
12849;DHT22;6493;50.928;7.172;2023-02-05T19:44:51;2.70;69.10
12849;DHT22;6493;50.928;7.172;2023-02-05T19:49:54;2.70;69.10
12849;DHT22;6493;50.928;7.172;2023-02-05T19:54:58;2.70;69.10
12849;DHT22;6493;50.928;7.172;2023-02-05T20:00:04;2.70;69.10
12849;DHT22;6493;50.928;7.172;2023-02-05T20:05:13;2.70;69.10
12849;DHT22;6493;50.928;7.172;2023-02-05T20:10:17;2.70;69.00
12849;DHT22;6493;50.928;7.172;2023-02-05T20:15:22;2.70;69.00
12849;DHT22;6493;50.928;7.172;2023-02-05T20:20:26;2.70;69.00
12849;DHT22;6493;50.928;7.172;2023-02-05T20:25:51;2.70;68.90
12849;DHT22;6493;50.928;7.172;2023-02-05T20:30:57;2.70;68.90
12849;DHT22;6493;50.928;7.172;2023-02-05T20:36:18;2.70;69.00
12849;DHT22;6493;50.928;7.172;2023-02-05T20:41:22;2.60;68.80
12849;DHT22;6493;50.928;7.172;2023-02-05T20:46:27;2.60;68.70
12849;DHT22;6493;50.928;7.172;2023-02-05T20:51:31;2.70;68.70
12849;DHT22;6493;50.928;7.172;2023-02-05T20:56:35;2.60;68.60
12849;DHT22;6493;50.928;7.172;2023-02-05T21:01:40;2.60;68.60
12849;DHT22;6493;50.928;7.172;2023-02-05T21:06:44;2.60;68.70
12849;DHT22;6493;50.928;7.172;2023-02-05T21:11:48;2.60;68.60
12849;DHT22;6493;50.928;7.172;2023-02-05T21:16:58;2.60;68.30
12849;DHT22;6493;50.928;7.172;2023-02-05T21:22:02;2.60;68.30
12849;DHT22;6493;50.928;7.172;2023-02-05T21:27:05;2.60;68.40
12849;DHT22;6493;50.928;7.172;2023-02-05T21:32:10;2.60;68.30
12849;DHT22;6493;50.928;7.172;2023-02-05T21:37:14;2.60;68.20
12849;DHT22;6493;50.928;7.172;2023-02-05T21:42:18;2.50;68.10
12849;DHT22;6493;50.928;7.172;2023-02-05T21:47:23;2.50;68.10
12849;DHT22;6493;50.928;7.172;2023-02-05T21:52:26;2.50;68.70
12849;DHT22;6493;50.928;7.172;2023-02-05T21:57:30;2.50;68.00
12849;DHT22;6493;50.928;7.172;2023-02-05T22:02:35;2.40;67.70
12849;DHT22;6493;50.928;7.172;2023-02-05T22:07:39;2.40;67.50
12849;DHT22;6493;50.928;7.172;2023-02-05T22:12:43;2.40;67.40
12849;DHT22;6493;50.928;7.172;2023-02-05T22:17:48;2.30;67.20
12849;DHT22;6493;50.928;7.172;2023-02-05T22:22:51;2.20;67.20
12849;DHT22;6493;50.928;7.172;2023-02-05T22:27:55;2.20;67.20
12849;DHT22;6493;50.928;7.172;2023-02-05T22:33:01;2.10;67.10
12849;DHT22;6493;50.928;7.172;2023-02-05T22:38:04;2.00;67.70
12849;DHT22;6493;50.928;7.172;2023-02-05T22:43:08;1.90;66.90
12849;DHT22;6493;50.928;7.172;2023-02-05T22:48:13;1.90;67.20
12849;DHT22;6493;50.928;7.172;2023-02-05T22:53:16;1.90;67.50
12849;DHT22;6493;50.928;7.172;2023-02-05T22:58:20;1.90;67.60
12849;DHT22;6493;50.928;7.172;2023-02-05T23:03:25;1.90;67.70
12849;DHT22;6493;50.928;7.172;2023-02-05T23:08:29;1.90;67.60
12849;DHT22;6493;50.928;7.172;2023-02-05T23:13:33;1.90;67.60
12849;DHT22;6493;50.928;7.172;2023-02-05T23:18:39;1.90;67.50
12849;DHT22;6493;50.928;7.172;2023-02-05T23:23:43;1.90;67.40
12849;DHT22;6493;50.928;7.172;2023-02-05T23:28:47;1.90;67.10
12849;DHT22;6493;50.928;7.172;2023-02-05T23:33:52;1.80;67.00
12849;DHT22;6493;50.928;7.172;2023-02-05T23:38:56;1.80;67.00
12849;DHT22;6493;50.928;7.172;2023-02-05T23:44:01;1.70;66.90
12849;DHT22;6493;50.928;7.172;2023-02-05T23:49:07;1.70;66.80
12849;DHT22;6493;50.928;7.172;2023-02-05T23:54:10;1.60;66.80
12849;DHT22;6493;50.928;7.172;2023-02-05T23:59:14;1.50;66.50
